Terminal Aerodrome Forecast
Issued by NWS Greer, SC

Home | Current Version | Previous Version | Text Only | Print | Product List | Glossary On
Versions: 1 2 3 4 5 6 7 8 9 10 11 12 13 14
481
FTUS42 KGSP 091729
TAFGSP
TAF
KGSP 091729Z 0918/1018 27014G21KT P6SM VCSH BKN050
     FM092300 27012KT P6SM BKN050
     FM100400 27006KT P6SM BKN060
     FM100700 27006KT P6SM SCT120
     FM101500 28010G16KT P6SM FEW250=

USA.gov is the U.S. government's official web portal to all federal, state and local government web resources and services.